sensor_id;sensor_type;location;lat;lon;timestamp;P1;durP1;ratioP1;P2;durP2;ratioP2
69629;SDS011;56857;52.212;5.496;2023-05-18T00:01:59;7.40;;;3.10;;
69629;SDS011;56857;52.212;5.496;2023-05-18T00:04:25;9.48;;;3.10;;
69629;SDS011;56857;52.212;5.496;2023-05-18T00:06:52;9.48;;;3.03;;
69629;SDS011;56857;52.212;5.496;2023-05-18T00:09:17;9.93;;;3.15;;
69629;SDS011;56857;52.212;5.496;2023-05-18T00:11:43;8.45;;;3.45;;
69629;SDS011;56857;52.212;5.496;2023-05-18T00:14:08;10.60;;;3.25;;
69629;SDS011;56857;52.212;5.496;2023-05-18T00:16:33;10.95;;;3.47;;
69629;SDS011;56857;52.212;5.496;2023-05-18T00:18:59;6.82;;;3.05;;
69629;SDS011;56857;52.212;5.496;2023-05-18T00:21:24;11.45;;;3.90;;
69629;SDS011;56857;52.212;5.496;2023-05-18T00:23:49;12.68;;;3.22;;
69629;SDS011;56857;52.212;5.496;2023-05-18T00:26:15;11.23;;;3.58;;
69629;SDS011;56857;52.212;5.496;2023-05-18T00:28:40;11.18;;;3.60;;
69629;SDS011;56857;52.212;5.496;2023-05-18T00:31:05;13.00;;;3.30;;
69629;SDS011;56857;52.212;5.496;2023-05-18T00:33:31;9.13;;;3.20;;
69629;SDS011;56857;52.212;5.496;2023-05-18T00:35:56;11.77;;;3.40;;
69629;SDS011;56857;52.212;5.496;2023-05-18T00:38:21;8.85;;;3.65;;
69629;SDS011;56857;52.212;5.496;2023-05-18T00:40:47;10.18;;;3.25;;
69629;SDS011;56857;52.212;5.496;2023-05-18T00:43:12;8.52;;;3.03;;
69629;SDS011;56857;52.212;5.496;2023-05-18T00:45:37;10.15;;;3.22;;
69629;SDS011;56857;52.212;5.496;2023-05-18T00:48:03;11.52;;;3.20;;
69629;SDS011;56857;52.212;5.496;2023-05-18T00:50:28;13.38;;;3.25;;
69629;SDS011;56857;52.212;5.496;2023-05-18T00:52:54;7.80;;;3.03;;
69629;SDS011;56857;52.212;5.496;2023-05-18T00:55:19;8.50;;;3.08;;
69629;SDS011;56857;52.212;5.496;2023-05-18T00:57:45;11.52;;;3.95;;
69629;SDS011;56857;52.212;5.496;2023-05-18T01:00:10;9.07;;;3.22;;
69629;SDS011;56857;52.212;5.496;2023-05-18T01:02:36;6.47;;;2.88;;
69629;SDS011;56857;52.212;5.496;2023-05-18T01:05:02;8.13;;;2.90;;
69629;SDS011;56857;52.212;5.496;2023-05-18T01:07:28;8.50;;;2.95;;
69629;SDS011;56857;52.212;5.496;2023-05-18T01:09:54;8.60;;;3.50;;
69629;SDS011;56857;52.212;5.496;2023-05-18T01:12:23;11.70;;;3.13;;
69629;SDS011;56857;52.212;5.496;2023-05-18T01:14:58;13.00;;;3.55;;
69629;SDS011;56857;52.212;5.496;2023-05-18T01:20:34;9.00;;;4.35;;
69629;SDS011;56857;52.212;5.496;2023-05-18T01:28:24;7.28;;;3.30;;
69629;SDS011;56857;52.212;5.496;2023-05-18T01:30:56;8.73;;;3.15;;
69629;SDS011;56857;52.212;5.496;2023-05-18T01:33:22;9.93;;;3.63;;
69629;SDS011;56857;52.212;5.496;2023-05-18T01:35:48;15.65;;;3.60;;
69629;SDS011;56857;52.212;5.496;2023-05-18T01:38:14;9.20;;;3.15;;
69629;SDS011;56857;52.212;5.496;2023-05-18T01:41:27;8.90;;;3.42;;
69629;SDS011;56857;52.212;5.496;2023-05-18T01:43:33;10.05;;;4.07;;
69629;SDS011;56857;52.212;5.496;2023-05-18T01:46:24;9.82;;;3.58;;
69629;SDS011;56857;52.212;5.496;2023-05-18T01:48:53;10.18;;;4.03;;
69629;SDS011;56857;52.212;5.496;2023-05-18T01:51:22;12.07;;;4.22;;
69629;SDS011;56857;52.212;5.496;2023-05-18T01:53:56;10.60;;;3.72;;
69629;SDS011;56857;52.212;5.496;2023-05-18T01:56:26;13.13;;;4.13;;
69629;SDS011;56857;52.212;5.496;2023-05-18T01:58:52;11.57;;;3.30;;
69629;SDS011;56857;52.212;5.496;2023-05-18T02:01:18;11.45;;;3.50;;
69629;SDS011;56857;52.212;5.496;2023-05-18T02:03:44;12.88;;;4.30;;
69629;SDS011;56857;52.212;5.496;2023-05-18T02:06:09;9.73;;;3.60;;
69629;SDS011;56857;52.212;5.496;2023-05-18T02:08:34;12.52;;;3.88;;
69629;SDS011;56857;52.212;5.496;2023-05-18T02:11:01;12.25;;;4.10;;
69629;SDS011;56857;52.212;5.496;2023-05-18T02:13:26;11.15;;;4.00;;
69629;SDS011;56857;52.212;5.496;2023-05-18T02:15:51;10.60;;;4.63;;
69629;SDS011;56857;52.212;5.496;2023-05-18T02:18:17;18.15;;;4.03;;
69629;SDS011;56857;52.212;5.496;2023-05-18T02:20:42;10.88;;;4.00;;
69629;SDS011;56857;52.212;5.496;2023-05-18T02:23:07;11.38;;;4.13;;
69629;SDS011;56857;52.212;5.496;2023-05-18T02:25:32;10.23;;;4.07;;
69629;SDS011;56857;52.212;5.496;2023-05-18T02:27:58;12.32;;;3.58;;
69629;SDS011;56857;52.212;5.496;2023-05-18T02:30:23;9.55;;;4.15;;
69629;SDS011;56857;52.212;5.496;2023-05-18T02:32:48;9.52;;;3.42;;
69629;SDS011;56857;52.212;5.496;2023-05-18T02:35:14;11.60;;;3.53;;
69629;SDS011;56857;52.212;5.496;2023-05-18T02:37:40;13.48;;;4.00;;
69629;SDS011;56857;52.212;5.496;2023-05-18T02:40:08;10.90;;;4.15;;
69629;SDS011;56857;52.212;5.496;2023-05-18T02:42:34;11.15;;;3.90;;
69629;SDS011;56857;52.212;5.496;2023-05-18T02:45:01;10.03;;;4.53;;
69629;SDS011;56857;52.212;5.496;2023-05-18T02:47:26;10.68;;;4.57;;
69629;SDS011;56857;52.212;5.496;2023-05-18T02:49:52;9.07;;;3.70;;
69629;SDS011;56857;52.212;5.496;2023-05-18T02:52:17;9.35;;;4.57;;
69629;SDS011;56857;52.212;5.496;2023-05-18T02:54:42;12.93;;;4.55;;
69629;SDS011;56857;52.212;5.496;2023-05-18T02:57:08;9.05;;;3.75;;
69629;SDS011;56857;52.212;5.496;2023-05-18T02:59:33;9.00;;;4.18;;
69629;SDS011;56857;52.212;5.496;2023-05-18T03:01:58;10.43;;;5.23;;
69629;SDS011;56857;52.212;5.496;2023-05-18T03:04:23;13.32;;;4.10;;
69629;SDS011;56857;52.212;5.496;2023-05-18T03:06:49;10.60;;;4.50;;
69629;SDS011;56857;52.212;5.496;2023-05-18T03:09:14;11.70;;;4.78;;
69629;SDS011;56857;52.212;5.496;2023-05-18T03:11:39;11.27;;;4.32;;
69629;SDS011;56857;52.212;5.496;2023-05-18T03:14:05;12.48;;;3.78;;
69629;SDS011;56857;52.212;5.496;2023-05-18T03:16:30;16.73;;;3.92;;
69629;SDS011;56857;52.212;5.496;2023-05-18T03:18:55;14.98;;;4.20;;
69629;SDS011;56857;52.212;5.496;2023-05-18T03:21:21;9.13;;;4.30;;
69629;SDS011;56857;52.212;5.496;2023-05-18T03:23:46;20.08;;;4.38;;
69629;SDS011;56857;52.212;5.496;2023-05-18T03:26:12;13.55;;;3.90;;
69629;SDS011;56857;52.212;5.496;2023-05-18T03:28:37;11.00;;;3.95;;
69629;SDS011;56857;52.212;5.496;2023-05-18T03:31:03;10.00;;;3.53;;
69629;SDS011;56857;52.212;5.496;2023-05-18T03:33:29;9.82;;;3.80;;
69629;SDS011;56857;52.212;5.496;2023-05-18T03:35:54;11.88;;;3.50;;
69629;SDS011;56857;52.212;5.496;2023-05-18T03:38:19;12.25;;;4.13;;
69629;SDS011;56857;52.212;5.496;2023-05-18T03:40:45;12.65;;;5.00;;
69629;SDS011;56857;52.212;5.496;2023-05-18T03:43:10;16.30;;;4.40;;
69629;SDS011;56857;52.212;5.496;2023-05-18T03:45:35;11.35;;;4.40;;
69629;SDS011;56857;52.212;5.496;2023-05-18T03:48:01;10.37;;;3.73;;
69629;SDS011;56857;52.212;5.496;2023-05-18T03:50:26;9.45;;;4.22;;
69629;SDS011;56857;52.212;5.496;2023-05-18T03:52:51;9.70;;;4.43;;
69629;SDS011;56857;52.212;5.496;2023-05-18T03:55:17;11.93;;;5.13;;
69629;SDS011;56857;52.212;5.496;2023-05-18T03:57:42;10.23;;;3.72;;
69629;SDS011;56857;52.212;5.496;2023-05-18T04:00:07;9.77;;;4.00;;
69629;SDS011;56857;52.212;5.496;2023-05-18T04:02:33;12.05;;;4.05;;
69629;SDS011;56857;52.212;5.496;2023-05-18T04:04:58;11.25;;;4.00;;
69629;SDS011;56857;52.212;5.496;2023-05-18T04:07:24;11.10;;;5.10;;
69629;SDS011;56857;52.212;5.496;2023-05-18T04:09:52;7.53;;;3.20;;
69629;SDS011;56857;52.212;5.496;2023-05-18T04:12:19;9.20;;;3.42;;
69629;SDS011;56857;52.212;5.496;2023-05-18T04:14:45;8.30;;;3.60;;
69629;SDS011;56857;52.212;5.496;2023-05-18T04:17:11;9.43;;;3.90;;
69629;SDS011;56857;52.212;5.496;2023-05-18T04:19:36;19.52;;;4.85;;
69629;SDS011;56857;52.212;5.496;2023-05-18T04:22:02;8.85;;;4.00;;
69629;SDS011;56857;52.212;5.496;2023-05-18T04:24:28;8.95;;;3.83;;
69629;SDS011;56857;52.212;5.496;2023-05-18T04:26:53;9.83;;;4.40;;
69629;SDS011;56857;52.212;5.496;2023-05-18T04:29:18;11.25;;;3.88;;
69629;SDS011;56857;52.212;5.496;2023-05-18T04:31:43;11.93;;;3.78;;
69629;SDS011;56857;52.212;5.496;2023-05-18T04:34:09;12.82;;;4.05;;
69629;SDS011;56857;52.212;5.496;2023-05-18T04:36:34;14.90;;;3.70;;
69629;SDS011;56857;52.212;5.496;2023-05-18T04:39:00;9.73;;;3.83;;
69629;SDS011;56857;52.212;5.496;2023-05-18T04:41:26;14.27;;;3.58;;
69629;SDS011;56857;52.212;5.496;2023-05-18T04:43:51;13.73;;;4.35;;
69629;SDS011;56857;52.212;5.496;2023-05-18T04:46:17;14.70;;;3.80;;
69629;SDS011;56857;52.212;5.496;2023-05-18T04:48:42;14.93;;;4.70;;
69629;SDS011;56857;52.212;5.496;2023-05-18T04:51:08;12.02;;;3.70;;
69629;SDS011;56857;52.212;5.496;2023-05-18T04:53:33;16.88;;;4.07;;
69629;SDS011;56857;52.212;5.496;2023-05-18T04:55:59;10.27;;;3.90;;
69629;SDS011;56857;52.212;5.496;2023-05-18T04:58:25;11.43;;;3.55;;
69629;SDS011;56857;52.212;5.496;2023-05-18T05:00:51;11.82;;;3.90;;
69629;SDS011;56857;52.212;5.496;2023-05-18T05:03:16;12.57;;;3.65;;
69629;SDS011;56857;52.212;5.496;2023-05-18T05:05:41;10.27;;;4.00;;
69629;SDS011;56857;52.212;5.496;2023-05-18T05:08:07;12.57;;;4.13;;
69629;SDS011;56857;52.212;5.496;2023-05-18T05:10:32;12.20;;;4.20;;
69629;SDS011;56857;52.212;5.496;2023-05-18T05:12:57;8.20;;;3.55;;
69629;SDS011;56857;52.212;5.496;2023-05-18T05:15:23;9.77;;;3.28;;
69629;SDS011;56857;52.212;5.496;2023-05-18T05:17:48;10.50;;;3.72;;
69629;SDS011;56857;52.212;5.496;2023-05-18T05:20:14;10.70;;;4.20;;
69629;SDS011;56857;52.212;5.496;2023-05-18T05:22:40;10.60;;;3.70;;
69629;SDS011;56857;52.212;5.496;2023-05-18T05:25:06;10.07;;;5.05;;
69629;SDS011;56857;52.212;5.496;2023-05-18T05:27:31;8.35;;;4.18;;
69629;SDS011;56857;52.212;5.496;2023-05-18T05:29:57;12.68;;;3.30;;
69629;SDS011;56857;52.212;5.496;2023-05-18T05:32:22;12.45;;;3.28;;
69629;SDS011;56857;52.212;5.496;2023-05-18T05:34:48;9.98;;;2.88;;
69629;SDS011;56857;52.212;5.496;2023-05-18T05:37:14;13.25;;;3.28;;
69629;SDS011;56857;52.212;5.496;2023-05-18T05:39:40;14.00;;;3.72;;
69629;SDS011;56857;52.212;5.496;2023-05-18T05:42:05;9.98;;;3.40;;
69629;SDS011;56857;52.212;5.496;2023-05-18T05:44:30;8.00;;;3.08;;
69629;SDS011;56857;52.212;5.496;2023-05-18T05:46:56;11.40;;;3.03;;
69629;SDS011;56857;52.212;5.496;2023-05-18T05:49:21;11.68;;;2.90;;
69629;SDS011;56857;52.212;5.496;2023-05-18T05:51:46;14.85;;;3.25;;
69629;SDS011;56857;52.212;5.496;2023-05-18T05:54:12;9.05;;;4.30;;
69629;SDS011;56857;52.212;5.496;2023-05-18T05:56:38;9.63;;;3.00;;
69629;SDS011;56857;52.212;5.496;2023-05-18T05:59:03;12.38;;;2.97;;
69629;SDS011;56857;52.212;5.496;2023-05-18T06:01:29;10.65;;;3.28;;
69629;SDS011;56857;52.212;5.496;2023-05-18T06:03:54;13.20;;;3.13;;
69629;SDS011;56857;52.212;5.496;2023-05-18T06:06:19;6.75;;;2.42;;
69629;SDS011;56857;52.212;5.496;2023-05-18T06:08:45;8.95;;;2.60;;
69629;SDS011;56857;52.212;5.496;2023-05-18T06:11:10;9.20;;;2.67;;
69629;SDS011;56857;52.212;5.496;2023-05-18T06:13:35;12.40;;;2.85;;
69629;SDS011;56857;52.212;5.496;2023-05-18T06:16:01;10.00;;;3.47;;
69629;SDS011;56857;52.212;5.496;2023-05-18T06:18:26;10.20;;;2.67;;
69629;SDS011;56857;52.212;5.496;2023-05-18T06:20:51;9.88;;;3.08;;
69629;SDS011;56857;52.212;5.496;2023-05-18T06:23:17;7.28;;;2.22;;
69629;SDS011;56857;52.212;5.496;2023-05-18T06:25:42;11.82;;;2.67;;
69629;SDS011;56857;52.212;5.496;2023-05-18T06:28:07;10.85;;;3.17;;
69629;SDS011;56857;52.212;5.496;2023-05-18T06:30:33;5.53;;;2.08;;
69629;SDS011;56857;52.212;5.496;2023-05-18T06:32:58;10.05;;;2.83;;
69629;SDS011;56857;52.212;5.496;2023-05-18T06:35:23;10.53;;;2.20;;
69629;SDS011;56857;52.212;5.496;2023-05-18T06:37:49;11.55;;;2.88;;
69629;SDS011;56857;52.212;5.496;2023-05-18T06:40:14;10.63;;;2.80;;
69629;SDS011;56857;52.212;5.496;2023-05-18T06:42:39;9.25;;;2.38;;
69629;SDS011;56857;52.212;5.496;2023-05-18T06:45:05;14.60;;;3.40;;
69629;SDS011;56857;52.212;5.496;2023-05-18T06:47:31;8.10;;;2.55;;
69629;SDS011;56857;52.212;5.496;2023-05-18T06:49:56;8.53;;;2.40;;
69629;SDS011;56857;52.212;5.496;2023-05-18T06:52:21;8.77;;;2.50;;
69629;SDS011;56857;52.212;5.496;2023-05-18T06:54:47;6.95;;;2.38;;
69629;SDS011;56857;52.212;5.496;2023-05-18T06:57:12;10.93;;;2.72;;
69629;SDS011;56857;52.212;5.496;2023-05-18T06:59:37;11.07;;;2.58;;
69629;SDS011;56857;52.212;5.496;2023-05-18T07:02:03;8.20;;;2.22;;
69629;SDS011;56857;52.212;5.496;2023-05-18T07:04:28;14.85;;;3.33;;
69629;SDS011;56857;52.212;5.496;2023-05-18T07:06:54;9.25;;;2.78;;
69629;SDS011;56857;52.212;5.496;2023-05-18T07:09:19;10.88;;;2.83;;
69629;SDS011;56857;52.212;5.496;2023-05-18T07:11:44;11.75;;;3.45;;
69629;SDS011;56857;52.212;5.496;2023-05-18T07:14:09;9.50;;;2.60;;
69629;SDS011;56857;52.212;5.496;2023-05-18T07:16:35;12.35;;;2.45;;
69629;SDS011;56857;52.212;5.496;2023-05-18T07:19:00;9.98;;;3.47;;
69629;SDS011;56857;52.212;5.496;2023-05-18T07:21:25;11.98;;;2.20;;
69629;SDS011;56857;52.212;5.496;2023-05-18T07:23:51;8.60;;;2.28;;
69629;SDS011;56857;52.212;5.496;2023-05-18T07:26:16;14.15;;;2.80;;
69629;SDS011;56857;52.212;5.496;2023-05-18T07:28:42;8.13;;;2.10;;
69629;SDS011;56857;52.212;5.496;2023-05-18T07:31:08;6.60;;;1.90;;
69629;SDS011;56857;52.212;5.496;2023-05-18T07:33:33;8.43;;;2.45;;
69629;SDS011;56857;52.212;5.496;2023-05-18T07:35:58;6.95;;;2.15;;
69629;SDS011;56857;52.212;5.496;2023-05-18T07:38:27;10.10;;;2.60;;
69629;SDS011;56857;52.212;5.496;2023-05-18T07:41:03;8.18;;;2.88;;
69629;SDS011;56857;52.212;5.496;2023-05-18T07:43:31;12.70;;;2.53;;
69629;SDS011;56857;52.212;5.496;2023-05-18T07:45:56;9.23;;;2.08;;
69629;SDS011;56857;52.212;5.496;2023-05-18T07:48:21;9.43;;;2.83;;
69629;SDS011;56857;52.212;5.496;2023-05-18T07:50:47;8.02;;;2.10;;
69629;SDS011;56857;52.212;5.496;2023-05-18T07:53:12;7.90;;;2.25;;
69629;SDS011;56857;52.212;5.496;2023-05-18T07:55:37;9.38;;;2.10;;
69629;SDS011;56857;52.212;5.496;2023-05-18T07:58:03;10.27;;;2.20;;
69629;SDS011;56857;52.212;5.496;2023-05-18T08:00:29;7.43;;;2.20;;
69629;SDS011;56857;52.212;5.496;2023-05-18T08:02:55;12.13;;;3.30;;
69629;SDS011;56857;52.212;5.496;2023-05-18T08:05:20;8.52;;;2.42;;
69629;SDS011;56857;52.212;5.496;2023-05-18T08:07:45;8.27;;;2.50;;
69629;SDS011;56857;52.212;5.496;2023-05-18T08:10:10;8.95;;;2.80;;
69629;SDS011;56857;52.212;5.496;2023-05-18T08:12:36;11.35;;;2.70;;
69629;SDS011;56857;52.212;5.496;2023-05-18T08:15:01;6.95;;;2.30;;
69629;SDS011;56857;52.212;5.496;2023-05-18T08:17:27;12.68;;;2.47;;
69629;SDS011;56857;52.212;5.496;2023-05-18T08:19:52;13.48;;;2.72;;
69629;SDS011;56857;52.212;5.496;2023-05-18T08:22:18;12.73;;;2.50;;
69629;SDS011;56857;52.212;5.496;2023-05-18T08:24:43;9.18;;;2.38;;
69629;SDS011;56857;52.212;5.496;2023-05-18T08:27:09;11.10;;;2.58;;
69629;SDS011;56857;52.212;5.496;2023-05-18T08:29:34;12.27;;;3.45;;
69629;SDS011;56857;52.212;5.496;2023-05-18T08:32:00;8.93;;;2.63;;
69629;SDS011;56857;52.212;5.496;2023-05-18T08:34:25;9.60;;;2.47;;
69629;SDS011;56857;52.212;5.496;2023-05-18T08:36:50;7.63;;;1.80;;
69629;SDS011;56857;52.212;5.496;2023-05-18T08:39:15;8.77;;;2.20;;
69629;SDS011;56857;52.212;5.496;2023-05-18T08:41:58;8.80;;;2.28;;
69629;SDS011;56857;52.212;5.496;2023-05-18T08:44:33;10.52;;;2.78;;
69629;SDS011;56857;52.212;5.496;2023-05-18T08:47:02;8.27;;;2.10;;
69629;SDS011;56857;52.212;5.496;2023-05-18T08:49:33;12.93;;;2.33;;
69629;SDS011;56857;52.212;5.496;2023-05-18T08:51:59;9.95;;;2.38;;
69629;SDS011;56857;52.212;5.496;2023-05-18T08:54:29;8.02;;;2.15;;
69629;SDS011;56857;52.212;5.496;2023-05-18T08:56:55;8.45;;;2.80;;
69629;SDS011;56857;52.212;5.496;2023-05-18T08:59:23;7.65;;;2.22;;
69629;SDS011;56857;52.212;5.496;2023-05-18T09:01:50;11.70;;;2.20;;
69629;SDS011;56857;52.212;5.496;2023-05-18T09:04:17;7.85;;;1.98;;
69629;SDS011;56857;52.212;5.496;2023-05-18T09:06:43;9.15;;;1.90;;
69629;SDS011;56857;52.212;5.496;2023-05-18T09:09:11;9.80;;;2.03;;
69629;SDS011;56857;52.212;5.496;2023-05-18T09:11:38;9.30;;;2.13;;
69629;SDS011;56857;52.212;5.496;2023-05-18T09:14:04;7.50;;;2.50;;
69629;SDS011;56857;52.212;5.496;2023-05-18T09:16:30;8.00;;;2.50;;
69629;SDS011;56857;52.212;5.496;2023-05-18T09:18:56;9.68;;;2.53;;
69629;SDS011;56857;52.212;5.496;2023-05-18T09:21:21;10.70;;;2.45;;
69629;SDS011;56857;52.212;5.496;2023-05-18T09:23:46;10.88;;;2.20;;
69629;SDS011;56857;52.212;5.496;2023-05-18T09:26:12;11.38;;;2.90;;
69629;SDS011;56857;52.212;5.496;2023-05-18T09:28:38;9.57;;;2.33;;
69629;SDS011;56857;52.212;5.496;2023-05-18T09:31:38;8.85;;;2.40;;
69629;SDS011;56857;52.212;5.496;2023-05-18T09:33:57;10.50;;;2.67;;
69629;SDS011;56857;52.212;5.496;2023-05-18T09:36:23;13.20;;;2.42;;
69629;SDS011;56857;52.212;5.496;2023-05-18T09:38:50;11.10;;;2.30;;
69629;SDS011;56857;52.212;5.496;2023-05-18T09:41:16;10.80;;;2.72;;
69629;SDS011;56857;52.212;5.496;2023-05-18T09:43:42;8.77;;;2.30;;
69629;SDS011;56857;52.212;5.496;2023-05-18T09:46:08;6.47;;;2.08;;
69629;SDS011;56857;52.212;5.496;2023-05-18T09:48:35;10.63;;;2.83;;
69629;SDS011;56857;52.212;5.496;2023-05-18T09:51:03;5.22;;;2.03;;
69629;SDS011;56857;52.212;5.496;2023-05-18T09:53:29;11.30;;;2.40;;
69629;SDS011;56857;52.212;5.496;2023-05-18T09:55:55;9.95;;;2.33;;
69629;SDS011;56857;52.212;5.496;2023-05-18T09:58:30;10.35;;;2.85;;
69629;SDS011;56857;52.212;5.496;2023-05-18T10:00:56;7.55;;;2.00;;
69629;SDS011;56857;52.212;5.496;2023-05-18T10:03:25;10.80;;;2.72;;
69629;SDS011;56857;52.212;5.496;2023-05-18T10:05:50;9.98;;;2.45;;
69629;SDS011;56857;52.212;5.496;2023-05-18T10:08:16;9.05;;;2.67;;
69629;SDS011;56857;52.212;5.496;2023-05-18T10:10:45;9.32;;;2.63;;
69629;SDS011;56857;52.212;5.496;2023-05-18T10:13:12;9.90;;;2.40;;
69629;SDS011;56857;52.212;5.496;2023-05-18T10:15:45;9.00;;;2.33;;
69629;SDS011;56857;52.212;5.496;2023-05-18T10:18:12;7.40;;;2.40;;
69629;SDS011;56857;52.212;5.496;2023-05-18T10:20:39;9.57;;;2.20;;
69629;SDS011;56857;52.212;5.496;2023-05-18T10:23:07;8.70;;;2.63;;
69629;SDS011;56857;52.212;5.496;2023-05-18T10:25:33;8.43;;;2.35;;
69629;SDS011;56857;52.212;5.496;2023-05-18T10:28:03;8.27;;;2.10;;
69629;SDS011;56857;52.212;5.496;2023-05-18T10:30:31;6.45;;;2.33;;
69629;SDS011;56857;52.212;5.496;2023-05-18T10:32:56;5.65;;;2.30;;
69629;SDS011;56857;52.212;5.496;2023-05-18T10:35:23;7.05;;;2.08;;
69629;SDS011;56857;52.212;5.496;2023-05-18T10:37:50;6.72;;;2.42;;
69629;SDS011;56857;52.212;5.496;2023-05-18T10:40:17;7.32;;;2.20;;
69629;SDS011;56857;52.212;5.496;2023-05-18T10:42:44;10.38;;;2.30;;
69629;SDS011;56857;52.212;5.496;2023-05-18T10:45:10;8.05;;;2.15;;
69629;SDS011;56857;52.212;5.496;2023-05-18T10:47:36;6.47;;;2.13;;
69629;SDS011;56857;52.212;5.496;2023-05-18T10:50:01;7.93;;;2.38;;
69629;SDS011;56857;52.212;5.496;2023-05-18T10:52:29;7.18;;;2.10;;
69629;SDS011;56857;52.212;5.496;2023-05-18T10:54:59;9.23;;;2.95;;
69629;SDS011;56857;52.212;5.496;2023-05-18T10:57:25;9.65;;;2.60;;
69629;SDS011;56857;52.212;5.496;2023-05-18T10:59:56;7.05;;;2.03;;
69629;SDS011;56857;52.212;5.496;2023-05-18T11:02:22;8.40;;;2.50;;
69629;SDS011;56857;52.212;5.496;2023-05-18T11:04:49;11.55;;;2.67;;
69629;SDS011;56857;52.212;5.496;2023-05-18T11:07:14;6.93;;;2.45;;
69629;SDS011;56857;52.212;5.496;2023-05-18T11:09:40;7.05;;;2.47;;
69629;SDS011;56857;52.212;5.496;2023-05-18T11:12:11;8.02;;;2.85;;
69629;SDS011;56857;52.212;5.496;2023-05-18T11:14:46;9.00;;;2.55;;
69629;SDS011;56857;52.212;5.496;2023-05-18T11:17:16;9.40;;;2.78;;
69629;SDS011;56857;52.212;5.496;2023-05-18T11:27:49;10.77;;;2.60;;
69629;SDS011;56857;52.212;5.496;2023-05-18T11:30:30;7.93;;;2.42;;
69629;SDS011;56857;52.212;5.496;2023-05-18T11:41:50;9.15;;;2.20;;
69629;SDS011;56857;52.212;5.496;2023-05-18T11:46:53;10.75;;;2.83;;
69629;SDS011;56857;52.212;5.496;2023-05-18T11:49:19;8.00;;;2.45;;
69629;SDS011;56857;52.212;5.496;2023-05-18T11:54:38;7.72;;;2.22;;
69629;SDS011;56857;52.212;5.496;2023-05-18T11:57:06;8.30;;;2.63;;
69629;SDS011;56857;52.212;5.496;2023-05-18T11:59:34;8.20;;;2.30;;
69629;SDS011;56857;52.212;5.496;2023-05-18T12:02:01;8.23;;;2.45;;
69629;SDS011;56857;52.212;5.496;2023-05-18T12:04:27;9.25;;;2.90;;
69629;SDS011;56857;52.212;5.496;2023-05-18T12:06:53;10.68;;;2.70;;
69629;SDS011;56857;52.212;5.496;2023-05-18T12:09:19;12.30;;;3.13;;
69629;SDS011;56857;52.212;5.496;2023-05-18T12:11:44;11.02;;;3.13;;
69629;SDS011;56857;52.212;5.496;2023-05-18T12:14:10;8.95;;;2.53;;
69629;SDS011;56857;52.212;5.496;2023-05-18T12:16:37;7.13;;;2.53;;
69629;SDS011;56857;52.212;5.496;2023-05-18T12:19:05;13.07;;;2.97;;
69629;SDS011;56857;52.212;5.496;2023-05-18T12:21:33;9.63;;;2.85;;
69629;SDS011;56857;52.212;5.496;2023-05-18T12:23:59;11.82;;;2.80;;
69629;SDS011;56857;52.212;5.496;2023-05-18T12:26:25;9.93;;;2.65;;
69629;SDS011;56857;52.212;5.496;2023-05-18T12:28:51;9.70;;;3.10;;
69629;SDS011;56857;52.212;5.496;2023-05-18T12:31:16;8.48;;;2.88;;
69629;SDS011;56857;52.212;5.496;2023-05-18T12:33:42;7.75;;;2.58;;
69629;SDS011;56857;52.212;5.496;2023-05-18T12:36:11;7.85;;;3.00;;
69629;SDS011;56857;52.212;5.496;2023-05-18T12:38:39;7.47;;;2.63;;
69629;SDS011;56857;52.212;5.496;2023-05-18T12:41:05;8.50;;;2.80;;
69629;SDS011;56857;52.212;5.496;2023-05-18T12:43:34;10.05;;;2.92;;
69629;SDS011;56857;52.212;5.496;2023-05-18T12:46:03;11.15;;;3.20;;
69629;SDS011;56857;52.212;5.496;2023-05-18T12:48:37;7.45;;;2.95;;
69629;SDS011;56857;52.212;5.496;2023-05-18T12:51:19;8.45;;;3.20;;
69629;SDS011;56857;52.212;5.496;2023-05-18T12:53:45;13.43;;;2.90;;
69629;SDS011;56857;52.212;5.496;2023-05-18T12:56:13;8.82;;;3.63;;
69629;SDS011;56857;52.212;5.496;2023-05-18T12:58:38;9.55;;;3.03;;
69629;SDS011;56857;52.212;5.496;2023-05-18T13:01:07;7.72;;;2.92;;
69629;SDS011;56857;52.212;5.496;2023-05-18T13:03:33;8.77;;;3.22;;
69629;SDS011;56857;52.212;5.496;2023-05-18T13:06:05;7.45;;;3.00;;
69629;SDS011;56857;52.212;5.496;2023-05-18T13:08:32;8.52;;;3.00;;
69629;SDS011;56857;52.212;5.496;2023-05-18T13:11:02;12.95;;;3.13;;
69629;SDS011;56857;52.212;5.496;2023-05-18T13:13:28;10.77;;;2.88;;
69629;SDS011;56857;52.212;5.496;2023-05-18T13:15:54;9.75;;;3.15;;
69629;SDS011;56857;52.212;5.496;2023-05-18T13:18:20;11.10;;;4.13;;
69629;SDS011;56857;52.212;5.496;2023-05-18T13:20:48;9.23;;;3.53;;
69629;SDS011;56857;52.212;5.496;2023-05-18T13:23:16;8.20;;;2.95;;
69629;SDS011;56857;52.212;5.496;2023-05-18T13:25:43;9.68;;;2.90;;
69629;SDS011;56857;52.212;5.496;2023-05-18T13:28:10;8.52;;;3.50;;
69629;SDS011;56857;52.212;5.496;2023-05-18T13:30:37;9.43;;;3.47;;
69629;SDS011;56857;52.212;5.496;2023-05-18T13:33:04;10.77;;;3.33;;
69629;SDS011;56857;52.212;5.496;2023-05-18T13:35:30;10.13;;;2.90;;
69629;SDS011;56857;52.212;5.496;2023-05-18T13:37:56;6.90;;;2.83;;
69629;SDS011;56857;52.212;5.496;2023-05-18T13:40:21;8.40;;;3.00;;
69629;SDS011;56857;52.212;5.496;2023-05-18T13:42:47;10.50;;;3.00;;
69629;SDS011;56857;52.212;5.496;2023-05-18T13:45:12;10.23;;;3.53;;
69629;SDS011;56857;52.212;5.496;2023-05-18T13:47:39;9.48;;;2.78;;
69629;SDS011;56857;52.212;5.496;2023-05-18T13:50:05;9.15;;;3.10;;
69629;SDS011;56857;52.212;5.496;2023-05-18T13:52:32;8.38;;;2.67;;
69629;SDS011;56857;52.212;5.496;2023-05-18T13:54:57;10.23;;;2.85;;
69629;SDS011;56857;52.212;5.496;2023-05-18T13:57:23;7.93;;;2.75;;
69629;SDS011;56857;52.212;5.496;2023-05-18T13:59:48;8.02;;;3.22;;
69629;SDS011;56857;52.212;5.496;2023-05-18T14:02:13;12.02;;;2.78;;
69629;SDS011;56857;52.212;5.496;2023-05-18T14:04:38;9.45;;;3.20;;
69629;SDS011;56857;52.212;5.496;2023-05-18T14:07:04;7.87;;;3.03;;
69629;SDS011;56857;52.212;5.496;2023-05-18T14:09:29;11.32;;;2.78;;
69629;SDS011;56857;52.212;5.496;2023-05-18T14:11:54;10.17;;;3.43;;
69629;SDS011;56857;52.212;5.496;2023-05-18T14:14:20;11.13;;;3.38;;
69629;SDS011;56857;52.212;5.496;2023-05-18T14:16:45;7.90;;;2.88;;
69629;SDS011;56857;52.212;5.496;2023-05-18T14:19:10;7.20;;;3.40;;
69629;SDS011;56857;52.212;5.496;2023-05-18T14:21:36;7.72;;;3.10;;
69629;SDS011;56857;52.212;5.496;2023-05-18T14:24:01;8.40;;;3.42;;
69629;SDS011;56857;52.212;5.496;2023-05-18T14:26:27;6.37;;;3.07;;
69629;SDS011;56857;52.212;5.496;2023-05-18T14:28:52;9.25;;;2.90;;
69629;SDS011;56857;52.212;5.496;2023-05-18T14:31:17;9.97;;;4.20;;
69629;SDS011;56857;52.212;5.496;2023-05-18T14:33:43;8.18;;;3.00;;
69629;SDS011;56857;52.212;5.496;2023-05-18T14:36:09;11.10;;;3.58;;
69629;SDS011;56857;52.212;5.496;2023-05-18T14:38:35;10.23;;;3.30;;
69629;SDS011;56857;52.212;5.496;2023-05-18T14:41:00;9.45;;;3.22;;
69629;SDS011;56857;52.212;5.496;2023-05-18T14:43:25;12.55;;;3.10;;
69629;SDS011;56857;52.212;5.496;2023-05-18T14:45:51;10.73;;;3.37;;
69629;SDS011;56857;52.212;5.496;2023-05-18T14:48:16;9.45;;;3.15;;
69629;SDS011;56857;52.212;5.496;2023-05-18T14:50:41;9.88;;;3.22;;
69629;SDS011;56857;52.212;5.496;2023-05-18T14:53:06;10.98;;;2.75;;
69629;SDS011;56857;52.212;5.496;2023-05-18T14:55:32;9.23;;;2.75;;
69629;SDS011;56857;52.212;5.496;2023-05-18T14:57:57;9.95;;;3.00;;
69629;SDS011;56857;52.212;5.496;2023-05-18T15:00:22;12.38;;;4.32;;
69629;SDS011;56857;52.212;5.496;2023-05-18T15:02:48;8.20;;;3.00;;
69629;SDS011;56857;52.212;5.496;2023-05-18T15:05:13;13.05;;;4.10;;
69629;SDS011;56857;52.212;5.496;2023-05-18T15:07:38;10.48;;;3.40;;